sensor_id;sensor_type;location;lat;lon;timestamp;P1;durP1;ratioP1;P2;durP2;ratioP2
29908;SDS011;36247;51.952;6.146;2022-08-19T00:01:49;11.77;;;10.27;;
29908;SDS011;36247;51.952;6.146;2022-08-19T00:04:16;10.48;;;9.07;;
29908;SDS011;36247;51.952;6.146;2022-08-19T00:06:44;12.18;;;10.88;;
29908;SDS011;36247;51.952;6.146;2022-08-19T00:09:13;12.27;;;10.93;;
29908;SDS011;36247;51.952;6.146;2022-08-19T00:11:41;15.48;;;11.50;;
29908;SDS011;36247;51.952;6.146;2022-08-19T00:14:10;13.57;;;10.95;;
29908;SDS011;36247;51.952;6.146;2022-08-19T00:16:38;12.98;;;11.68;;
29908;SDS011;36247;51.952;6.146;2022-08-19T00:19:06;15.65;;;12.70;;
29908;SDS011;36247;51.952;6.146;2022-08-19T00:21:32;10.80;;;9.73;;
29908;SDS011;36247;51.952;6.146;2022-08-19T00:23:57;11.65;;;9.55;;
29908;SDS011;36247;51.952;6.146;2022-08-19T00:26:24;11.20;;;9.63;;
29908;SDS011;36247;51.952;6.146;2022-08-19T00:28:52;16.17;;;13.02;;
29908;SDS011;36247;51.952;6.146;2022-08-19T00:31:19;24.38;;;13.23;;
29908;SDS011;36247;51.952;6.146;2022-08-19T00:33:44;15.07;;;12.65;;
29908;SDS011;36247;51.952;6.146;2022-08-19T00:36:10;14.23;;;12.02;;
29908;SDS011;36247;51.952;6.146;2022-08-19T00:38:36;10.52;;;9.43;;
29908;SDS011;36247;51.952;6.146;2022-08-19T00:41:06;11.07;;;9.88;;
29908;SDS011;36247;51.952;6.146;2022-08-19T00:43:32;13.30;;;9.75;;
29908;SDS011;36247;51.952;6.146;2022-08-19T00:45:59;11.93;;;10.50;;
29908;SDS011;36247;51.952;6.146;2022-08-19T00:48:26;12.73;;;11.32;;
29908;SDS011;36247;51.952;6.146;2022-08-19T00:50:52;10.90;;;9.73;;
29908;SDS011;36247;51.952;6.146;2022-08-19T00:53:20;10.50;;;7.88;;
29908;SDS011;36247;51.952;6.146;2022-08-19T00:55:48;10.63;;;9.52;;
29908;SDS011;36247;51.952;6.146;2022-08-19T00:58:19;10.52;;;9.43;;
29908;SDS011;36247;51.952;6.146;2022-08-19T01:00:47;16.45;;;11.35;;
29908;SDS011;36247;51.952;6.146;2022-08-19T01:03:14;16.30;;;13.88;;
29908;SDS011;36247;51.952;6.146;2022-08-19T01:05:44;18.67;;;13.02;;
29908;SDS011;36247;51.952;6.146;2022-08-19T01:08:10;17.30;;;14.45;;
29908;SDS011;36247;51.952;6.146;2022-08-19T01:10:37;16.58;;;13.32;;
29908;SDS011;36247;51.952;6.146;2022-08-19T01:13:06;13.93;;;12.40;;
29908;SDS011;36247;51.952;6.146;2022-08-19T01:15:35;15.80;;;11.88;;
29908;SDS011;36247;51.952;6.146;2022-08-19T01:18:06;12.50;;;10.50;;
29908;SDS011;36247;51.952;6.146;2022-08-19T01:20:34;14.88;;;12.43;;
29908;SDS011;36247;51.952;6.146;2022-08-19T01:23:00;15.50;;;13.20;;
29908;SDS011;36247;51.952;6.146;2022-08-19T01:25:31;15.70;;;11.82;;
29908;SDS011;36247;51.952;6.146;2022-08-19T01:28:14;16.92;;;12.93;;
29908;SDS011;36247;51.952;6.146;2022-08-19T01:30:43;18.75;;;12.40;;
29908;SDS011;36247;51.952;6.146;2022-08-19T01:33:09;17.42;;;14.35;;
29908;SDS011;36247;51.952;6.146;2022-08-19T01:35:35;18.42;;;15.00;;
29908;SDS011;36247;51.952;6.146;2022-08-19T01:38:03;17.80;;;14.30;;
29908;SDS011;36247;51.952;6.146;2022-08-19T01:40:33;19.13;;;15.40;;
29908;SDS011;36247;51.952;6.146;2022-08-19T01:43:01;10.68;;;9.48;;
29908;SDS011;36247;51.952;6.146;2022-08-19T01:45:28;14.95;;;12.60;;
29908;SDS011;36247;51.952;6.146;2022-08-19T01:47:56;13.70;;;10.90;;
29908;SDS011;36247;51.952;6.146;2022-08-19T01:50:22;15.45;;;11.90;;
29908;SDS011;36247;51.952;6.146;2022-08-19T01:52:47;11.93;;;10.00;;
29908;SDS011;36247;51.952;6.146;2022-08-19T01:55:15;17.60;;;12.80;;
29908;SDS011;36247;51.952;6.146;2022-08-19T01:57:44;14.23;;;11.23;;
29908;SDS011;36247;51.952;6.146;2022-08-19T02:00:15;9.80;;;8.05;;
29908;SDS011;36247;51.952;6.146;2022-08-19T02:02:42;14.93;;;11.63;;
29908;SDS011;36247;51.952;6.146;2022-08-19T02:05:09;13.55;;;11.10;;
29908;SDS011;36247;51.952;6.146;2022-08-19T02:07:36;14.88;;;12.48;;
29908;SDS011;36247;51.952;6.146;2022-08-19T02:10:04;12.63;;;10.77;;
29908;SDS011;36247;51.952;6.146;2022-08-19T02:12:30;11.07;;;9.88;;
29908;SDS011;36247;51.952;6.146;2022-08-19T02:14:56;11.95;;;10.18;;
29908;SDS011;36247;51.952;6.146;2022-08-19T02:17:21;18.17;;;14.18;;
29908;SDS011;36247;51.952;6.146;2022-08-19T02:19:47;13.40;;;12.00;;
29908;SDS011;36247;51.952;6.146;2022-08-19T02:22:13;15.88;;;13.90;;
29908;SDS011;36247;51.952;6.146;2022-08-19T02:24:39;12.48;;;10.88;;
29908;SDS011;36247;51.952;6.146;2022-08-19T02:27:05;14.68;;;11.20;;
29908;SDS011;36247;51.952;6.146;2022-08-19T02:29:30;16.70;;;12.57;;
29908;SDS011;36247;51.952;6.146;2022-08-19T02:31:56;13.98;;;11.18;;
29908;SDS011;36247;51.952;6.146;2022-08-19T02:34:22;20.45;;;15.63;;
29908;SDS011;36247;51.952;6.146;2022-08-19T02:36:49;18.25;;;15.23;;
29908;SDS011;36247;51.952;6.146;2022-08-19T02:39:15;19.20;;;13.18;;
29908;SDS011;36247;51.952;6.146;2022-08-19T02:41:40;17.73;;;13.63;;
29908;SDS011;36247;51.952;6.146;2022-08-19T02:44:06;14.27;;;12.02;;
29908;SDS011;36247;51.952;6.146;2022-08-19T02:46:32;19.38;;;14.55;;
29908;SDS011;36247;51.952;6.146;2022-08-19T02:49:05;18.65;;;15.40;;
29908;SDS011;36247;51.952;6.146;2022-08-19T02:51:34;19.75;;;15.88;;
29908;SDS011;36247;51.952;6.146;2022-08-19T02:54:04;19.23;;;15.70;;
29908;SDS011;36247;51.952;6.146;2022-08-19T02:56:30;19.80;;;15.77;;
29908;SDS011;36247;51.952;6.146;2022-08-19T02:58:59;21.73;;;16.63;;
29908;SDS011;36247;51.952;6.146;2022-08-19T03:01:26;16.15;;;12.55;;
29908;SDS011;36247;51.952;6.146;2022-08-19T03:03:55;13.63;;;12.23;;
29908;SDS011;36247;51.952;6.146;2022-08-19T03:06:22;12.10;;;10.80;;
29908;SDS011;36247;51.952;6.146;2022-08-19T03:08:48;14.15;;;12.23;;
29908;SDS011;36247;51.952;6.146;2022-08-19T03:11:24;13.95;;;11.38;;
29908;SDS011;36247;51.952;6.146;2022-08-19T03:13:52;18.85;;;15.65;;
29908;SDS011;36247;51.952;6.146;2022-08-19T03:16:19;13.43;;;10.38;;
29908;SDS011;36247;51.952;6.146;2022-08-19T03:18:45;16.40;;;12.80;;
29908;SDS011;36247;51.952;6.146;2022-08-19T03:21:16;13.38;;;9.27;;
29908;SDS011;36247;51.952;6.146;2022-08-19T03:23:44;17.27;;;12.55;;
29908;SDS011;36247;51.952;6.146;2022-08-19T03:26:10;13.93;;;11.13;;
29908;SDS011;36247;51.952;6.146;2022-08-19T03:28:36;11.77;;;9.30;;
29908;SDS011;36247;51.952;6.146;2022-08-19T03:31:06;6.70;;;5.95;;
29908;SDS011;36247;51.952;6.146;2022-08-19T03:33:34;11.40;;;8.57;;
29908;SDS011;36247;51.952;6.146;2022-08-19T03:36:07;11.57;;;9.65;;
29908;SDS011;36247;51.952;6.146;2022-08-19T03:38:36;10.10;;;8.48;;
29908;SDS011;36247;51.952;6.146;2022-08-19T03:41:08;10.63;;;9.00;;
29908;SDS011;36247;51.952;6.146;2022-08-19T03:43:36;10.52;;;8.90;;
29908;SDS011;36247;51.952;6.146;2022-08-19T03:46:04;11.20;;;9.75;;
29908;SDS011;36247;51.952;6.146;2022-08-19T03:48:35;10.48;;;9.38;;
29908;SDS011;36247;51.952;6.146;2022-08-19T03:51:02;14.52;;;11.57;;
29908;SDS011;36247;51.952;6.146;2022-08-19T03:53:28;12.30;;;10.75;;
29908;SDS011;36247;51.952;6.146;2022-08-19T03:55:55;10.43;;;9.23;;
29908;SDS011;36247;51.952;6.146;2022-08-19T03:58:22;11.75;;;10.52;;
29908;SDS011;36247;51.952;6.146;2022-08-19T04:00:48;12.27;;;10.80;;
29908;SDS011;36247;51.952;6.146;2022-08-19T04:03:13;14.15;;;12.00;;
29908;SDS011;36247;51.952;6.146;2022-08-19T04:05:39;13.68;;;12.23;;
29908;SDS011;36247;51.952;6.146;2022-08-19T04:08:04;10.57;;;9.48;;
29908;SDS011;36247;51.952;6.146;2022-08-19T04:10:31;9.65;;;8.65;;
29908;SDS011;36247;51.952;6.146;2022-08-19T04:13:06;9.13;;;8.32;;
29908;SDS011;36247;51.952;6.146;2022-08-19T04:15:32;8.73;;;7.93;;
29908;SDS011;36247;51.952;6.146;2022-08-19T04:18:04;9.18;;;8.27;;
29908;SDS011;36247;51.952;6.146;2022-08-19T04:20:32;11.15;;;9.05;;
29908;SDS011;36247;51.952;6.146;2022-08-19T04:23:04;12.70;;;10.05;;
29908;SDS011;36247;51.952;6.146;2022-08-19T04:25:35;10.60;;;8.70;;
29908;SDS011;36247;51.952;6.146;2022-08-19T04:28:04;11.68;;;9.77;;
29908;SDS011;36247;51.952;6.146;2022-08-19T04:30:29;8.48;;;7.65;;
29908;SDS011;36247;51.952;6.146;2022-08-19T04:32:55;8.93;;;8.02;;
29908;SDS011;36247;51.952;6.146;2022-08-19T04:35:20;8.98;;;7.93;;
29908;SDS011;36247;51.952;6.146;2022-08-19T04:37:46;10.93;;;9.40;;
29908;SDS011;36247;51.952;6.146;2022-08-19T04:40:11;10.10;;;9.10;;
29908;SDS011;36247;51.952;6.146;2022-08-19T04:42:56;14.70;;;11.18;;
29908;SDS011;36247;51.952;6.146;2022-08-19T04:45:21;15.65;;;10.60;;
29908;SDS011;36247;51.952;6.146;2022-08-19T04:47:47;12.93;;;10.40;;
29908;SDS011;36247;51.952;6.146;2022-08-19T04:50:12;12.35;;;10.27;;
29908;SDS011;36247;51.952;6.146;2022-08-19T04:52:39;10.20;;;9.02;;
29908;SDS011;36247;51.952;6.146;2022-08-19T04:55:09;10.95;;;9.27;;
29908;SDS011;36247;51.952;6.146;2022-08-19T04:57:35;10.10;;;8.98;;
29908;SDS011;36247;51.952;6.146;2022-08-19T05:00:04;11.00;;;9.57;;
29908;SDS011;36247;51.952;6.146;2022-08-19T05:02:30;15.10;;;12.48;;
29908;SDS011;36247;51.952;6.146;2022-08-19T05:04:56;24.13;;;14.15;;
29908;SDS011;36247;51.952;6.146;2022-08-19T05:07:26;21.33;;;14.65;;
29908;SDS011;36247;51.952;6.146;2022-08-19T05:09:51;19.73;;;15.63;;
29908;SDS011;36247;51.952;6.146;2022-08-19T05:12:17;20.33;;;15.63;;
29908;SDS011;36247;51.952;6.146;2022-08-19T05:14:44;17.63;;;14.48;;
29908;SDS011;36247;51.952;6.146;2022-08-19T05:17:12;17.65;;;14.32;;
29908;SDS011;36247;51.952;6.146;2022-08-19T05:19:38;19.17;;;15.32;;
29908;SDS011;36247;51.952;6.146;2022-08-19T05:22:22;16.85;;;14.18;;
29908;SDS011;36247;51.952;6.146;2022-08-19T05:25:06;17.58;;;15.13;;
29908;SDS011;36247;51.952;6.146;2022-08-19T05:27:34;18.02;;;14.57;;
29908;SDS011;36247;51.952;6.146;2022-08-19T05:30:00;20.88;;;16.13;;
29908;SDS011;36247;51.952;6.146;2022-08-19T05:32:26;18.02;;;14.93;;
29908;SDS011;36247;51.952;6.146;2022-08-19T05:34:52;26.30;;;17.95;;
29908;SDS011;36247;51.952;6.146;2022-08-19T05:37:18;21.77;;;17.27;;
29908;SDS011;36247;51.952;6.146;2022-08-19T05:39:44;20.80;;;16.13;;
29908;SDS011;36247;51.952;6.146;2022-08-19T05:42:11;23.63;;;18.05;;
29908;SDS011;36247;51.952;6.146;2022-08-19T05:44:38;19.05;;;14.80;;
29908;SDS011;36247;51.952;6.146;2022-08-19T05:47:10;20.42;;;14.95;;
29908;SDS011;36247;51.952;6.146;2022-08-19T05:49:37;19.77;;;16.23;;
29908;SDS011;36247;51.952;6.146;2022-08-19T05:52:04;25.00;;;19.38;;
29908;SDS011;36247;51.952;6.146;2022-08-19T05:54:32;27.40;;;21.65;;
29908;SDS011;36247;51.952;6.146;2022-08-19T05:57:00;23.15;;;18.48;;
29908;SDS011;36247;51.952;6.146;2022-08-19T05:59:27;25.67;;;20.10;;
29908;SDS011;36247;51.952;6.146;2022-08-19T06:01:52;26.60;;;20.35;;
29908;SDS011;36247;51.952;6.146;2022-08-19T06:04:22;24.77;;;19.40;;
29908;SDS011;36247;51.952;6.146;2022-08-19T06:06:49;26.45;;;19.95;;
29908;SDS011;36247;51.952;6.146;2022-08-19T06:09:16;30.77;;;20.15;;
29908;SDS011;36247;51.952;6.146;2022-08-19T06:11:44;28.10;;;21.85;;
29908;SDS011;36247;51.952;6.146;2022-08-19T06:14:13;27.80;;;22.15;;
29908;SDS011;36247;51.952;6.146;2022-08-19T06:16:41;28.83;;;21.95;;
29908;SDS011;36247;51.952;6.146;2022-08-19T06:19:08;31.00;;;22.25;;
29908;SDS011;36247;51.952;6.146;2022-08-19T06:21:37;31.48;;;23.35;;
29908;SDS011;36247;51.952;6.146;2022-08-19T06:24:04;38.17;;;25.95;;
29908;SDS011;36247;51.952;6.146;2022-08-19T06:26:33;33.78;;;24.02;;
29908;SDS011;36247;51.952;6.146;2022-08-19T06:29:01;32.20;;;23.73;;
29908;SDS011;36247;51.952;6.146;2022-08-19T06:31:29;35.25;;;25.92;;
29908;SDS011;36247;51.952;6.146;2022-08-19T06:33:58;37.75;;;27.30;;
29908;SDS011;36247;51.952;6.146;2022-08-19T06:36:26;45.58;;;29.40;;
29908;SDS011;36247;51.952;6.146;2022-08-19T06:38:57;44.22;;;31.08;;
29908;SDS011;36247;51.952;6.146;2022-08-19T06:41:27;42.60;;;29.48;;
29908;SDS011;36247;51.952;6.146;2022-08-19T06:43:54;45.63;;;31.42;;
29908;SDS011;36247;51.952;6.146;2022-08-19T06:46:20;49.35;;;31.98;;
29908;SDS011;36247;51.952;6.146;2022-08-19T06:48:46;46.72;;;31.60;;
29908;SDS011;36247;51.952;6.146;2022-08-19T06:51:16;47.53;;;31.83;;
29908;SDS011;36247;51.952;6.146;2022-08-19T06:56:16;47.88;;;32.28;;
29908;SDS011;36247;51.952;6.146;2022-08-19T06:58:44;44.75;;;29.77;;
29908;SDS011;36247;51.952;6.146;2022-08-19T07:01:11;46.35;;;30.50;;
29908;SDS011;36247;51.952;6.146;2022-08-19T07:03:37;47.55;;;31.77;;
29908;SDS011;36247;51.952;6.146;2022-08-19T07:06:08;45.95;;;30.27;;
29908;SDS011;36247;51.952;6.146;2022-08-19T07:08:35;46.30;;;29.83;;
29908;SDS011;36247;51.952;6.146;2022-08-19T07:11:06;45.17;;;30.35;;
29908;SDS011;36247;51.952;6.146;2022-08-19T07:13:33;50.20;;;29.13;;
29908;SDS011;36247;51.952;6.146;2022-08-19T07:16:03;53.20;;;31.33;;
29908;SDS011;36247;51.952;6.146;2022-08-19T07:18:33;49.88;;;33.30;;
29908;SDS011;36247;51.952;6.146;2022-08-19T07:23:59;60.08;;;34.75;;
29908;SDS011;36247;51.952;6.146;2022-08-19T07:26:26;48.42;;;32.95;;
29908;SDS011;36247;51.952;6.146;2022-08-19T07:28:54;57.05;;;34.13;;
29908;SDS011;36247;51.952;6.146;2022-08-19T07:31:21;53.10;;;32.25;;
29908;SDS011;36247;51.952;6.146;2022-08-19T07:33:49;54.20;;;32.63;;
29908;SDS011;36247;51.952;6.146;2022-08-19T07:36:18;54.88;;;34.75;;
29908;SDS011;36247;51.952;6.146;2022-08-19T07:38:47;57.42;;;34.10;;
29908;SDS011;36247;51.952;6.146;2022-08-19T07:41:18;57.75;;;34.35;;
29908;SDS011;36247;51.952;6.146;2022-08-19T07:43:47;62.70;;;35.45;;
29908;SDS011;36247;51.952;6.146;2022-08-19T07:46:14;57.88;;;37.28;;
29908;SDS011;36247;51.952;6.146;2022-08-19T07:48:44;60.95;;;35.50;;
29908;SDS011;36247;51.952;6.146;2022-08-19T07:51:14;74.00;;;40.20;;
29908;SDS011;36247;51.952;6.146;2022-08-19T07:53:41;72.82;;;39.25;;
29908;SDS011;36247;51.952;6.146;2022-08-19T07:56:10;75.40;;;40.80;;
29908;SDS011;36247;51.952;6.146;2022-08-19T07:58:38;75.47;;;40.95;;
29908;SDS011;36247;51.952;6.146;2022-08-19T08:01:07;70.50;;;38.95;;
29908;SDS011;36247;51.952;6.146;2022-08-19T08:03:35;72.15;;;41.67;;
29908;SDS011;36247;51.952;6.146;2022-08-19T08:06:20;76.70;;;41.72;;
29908;SDS011;36247;51.952;6.146;2022-08-19T08:09:05;76.25;;;42.20;;
29908;SDS011;36247;51.952;6.146;2022-08-19T08:11:40;72.32;;;40.22;;
29908;SDS011;36247;51.952;6.146;2022-08-19T08:14:14;74.10;;;40.53;;
29908;SDS011;36247;51.952;6.146;2022-08-19T08:16:45;80.80;;;41.90;;
29908;SDS011;36247;51.952;6.146;2022-08-19T08:19:11;77.22;;;42.25;;
29908;SDS011;36247;51.952;6.146;2022-08-19T08:21:40;81.30;;;43.30;;
29908;SDS011;36247;51.952;6.146;2022-08-19T08:24:06;80.82;;;43.60;;
29908;SDS011;36247;51.952;6.146;2022-08-19T08:26:32;99.63;;;48.45;;
29908;SDS011;36247;51.952;6.146;2022-08-19T08:28:57;91.05;;;45.90;;
29908;SDS011;36247;51.952;6.146;2022-08-19T08:31:23;92.50;;;44.95;;
29908;SDS011;36247;51.952;6.146;2022-08-19T08:33:49;91.35;;;47.63;;
29908;SDS011;36247;51.952;6.146;2022-08-19T08:36:15;82.22;;;44.10;;
29908;SDS011;36247;51.952;6.146;2022-08-19T08:38:42;86.20;;;45.03;;
29908;SDS011;36247;51.952;6.146;2022-08-19T08:41:23;80.13;;;44.83;;
29908;SDS011;36247;51.952;6.146;2022-08-19T08:43:53;79.45;;;44.42;;
29908;SDS011;36247;51.952;6.146;2022-08-19T08:51:51;70.65;;;40.03;;
29908;SDS011;36247;51.952;6.146;2022-08-19T08:54:20;77.45;;;44.13;;
29908;SDS011;36247;51.952;6.146;2022-08-19T08:56:52;74.53;;;40.80;;
29908;SDS011;36247;51.952;6.146;2022-08-19T08:59:23;73.32;;;39.90;;
29908;SDS011;36247;51.952;6.146;2022-08-19T09:01:57;64.25;;;38.65;;
29908;SDS011;36247;51.952;6.146;2022-08-19T09:04:23;62.35;;;37.33;;
29908;SDS011;36247;51.952;6.146;2022-08-19T09:09:40;55.13;;;33.28;;
29908;SDS011;36247;51.952;6.146;2022-08-19T09:15:07;56.05;;;33.20;;
29908;SDS011;36247;51.952;6.146;2022-08-19T09:17:35;47.25;;;30.48;;
29908;SDS011;36247;51.952;6.146;2022-08-19T09:22:36;40.03;;;25.10;;
29908;SDS011;36247;51.952;6.146;2022-08-19T09:25:03;32.50;;;20.92;;
29908;SDS011;36247;51.952;6.146;2022-08-19T09:27:30;28.73;;;20.10;;
29908;SDS011;36247;51.952;6.146;2022-08-19T09:29:57;31.35;;;19.52;;
29908;SDS011;36247;51.952;6.146;2022-08-19T09:32:23;28.17;;;18.27;;
29908;SDS011;36247;51.952;6.146;2022-08-19T09:34:49;23.63;;;15.40;;
29908;SDS011;36247;51.952;6.146;2022-08-19T09:37:14;23.33;;;14.55;;
29908;SDS011;36247;51.952;6.146;2022-08-19T09:39:40;17.55;;;13.50;;
29908;SDS011;36247;51.952;6.146;2022-08-19T09:42:07;22.13;;;14.27;;
29908;SDS011;36247;51.952;6.146;2022-08-19T09:44:40;16.73;;;11.45;;
29908;SDS011;36247;51.952;6.146;2022-08-19T09:47:07;14.32;;;10.15;;
29908;SDS011;36247;51.952;6.146;2022-08-19T09:49:33;18.55;;;13.38;;
29908;SDS011;36247;51.952;6.146;2022-08-19T09:51:59;20.70;;;13.70;;
29908;SDS011;36247;51.952;6.146;2022-08-19T09:54:25;21.23;;;15.70;;
29908;SDS011;36247;51.952;6.146;2022-08-19T09:56:51;24.77;;;16.05;;
29908;SDS011;36247;51.952;6.146;2022-08-19T09:59:17;21.70;;;13.82;;
29908;SDS011;36247;51.952;6.146;2022-08-19T10:01:44;16.67;;;12.88;;
29908;SDS011;36247;51.952;6.146;2022-08-19T10:04:09;17.67;;;11.48;;
29908;SDS011;36247;51.952;6.146;2022-08-19T10:06:36;17.77;;;10.57;;
29908;SDS011;36247;51.952;6.146;2022-08-19T10:09:04;12.57;;;9.65;;
29908;SDS011;36247;51.952;6.146;2022-08-19T10:11:32;12.57;;;10.30;;
29908;SDS011;36247;51.952;6.146;2022-08-19T10:14:00;17.45;;;12.10;;
29908;SDS011;36247;51.952;6.146;2022-08-19T10:16:27;21.17;;;13.70;;
29908;SDS011;36247;51.952;6.146;2022-08-19T10:18:53;18.63;;;12.68;;
29908;SDS011;36247;51.952;6.146;2022-08-19T10:23:49;22.83;;;15.05;;
29908;SDS011;36247;51.952;6.146;2022-08-19T10:26:18;31.33;;;19.92;;
29908;SDS011;36247;51.952;6.146;2022-08-19T10:28:45;38.15;;;25.17;;
29908;SDS011;36247;51.952;6.146;2022-08-19T10:31:25;40.10;;;24.38;;
29908;SDS011;36247;51.952;6.146;2022-08-19T10:33:52;43.63;;;27.38;;
29908;SDS011;36247;51.952;6.146;2022-08-19T10:36:22;43.35;;;27.60;;
29908;SDS011;36247;51.952;6.146;2022-08-19T10:38:57;40.30;;;24.92;;
29908;SDS011;36247;51.952;6.146;2022-08-19T10:41:27;41.88;;;27.27;;
29908;SDS011;36247;51.952;6.146;2022-08-19T10:43:56;42.22;;;24.83;;
29908;SDS011;36247;51.952;6.146;2022-08-19T10:46:24;47.80;;;26.83;;
29908;SDS011;36247;51.952;6.146;2022-08-19T10:48:52;28.70;;;20.40;;
29908;SDS011;36247;51.952;6.146;2022-08-19T10:51:19;36.63;;;26.17;;
29908;SDS011;36247;51.952;6.146;2022-08-19T10:54:04;37.50;;;23.40;;
29908;SDS011;36247;51.952;6.146;2022-08-19T10:56:29;38.03;;;22.85;;
29908;SDS011;36247;51.952;6.146;2022-08-19T10:59:15;38.75;;;23.02;;
29908;SDS011;36247;51.952;6.146;2022-08-19T11:01:43;35.38;;;22.70;;
29908;SDS011;36247;51.952;6.146;2022-08-19T11:04:10;33.60;;;22.27;;
29908;SDS011;36247;51.952;6.146;2022-08-19T11:06:39;32.42;;;20.65;;
29908;SDS011;36247;51.952;6.146;2022-08-19T11:09:05;32.25;;;20.38;;
29908;SDS011;36247;51.952;6.146;2022-08-19T11:11:31;26.23;;;20.00;;
29908;SDS011;36247;51.952;6.146;2022-08-19T11:14:05;29.30;;;18.70;;
29908;SDS011;36247;51.952;6.146;2022-08-19T11:16:36;26.85;;;19.42;;
29908;SDS011;36247;51.952;6.146;2022-08-19T11:19:04;26.27;;;17.63;;
29908;SDS011;36247;51.952;6.146;2022-08-19T11:21:33;24.95;;;16.90;;
29908;SDS011;36247;51.952;6.146;2022-08-19T11:24:03;29.45;;;17.70;;
29908;SDS011;36247;51.952;6.146;2022-08-19T11:26:32;24.65;;;16.42;;
29908;SDS011;36247;51.952;6.146;2022-08-19T11:28:59;27.30;;;16.48;;
29908;SDS011;36247;51.952;6.146;2022-08-19T11:31:27;22.23;;;15.48;;
29908;SDS011;36247;51.952;6.146;2022-08-19T11:33:57;26.85;;;16.42;;
29908;SDS011;36247;51.952;6.146;2022-08-19T11:36:25;22.50;;;15.38;;
29908;SDS011;36247;51.952;6.146;2022-08-19T11:38:51;21.48;;;14.55;;
29908;SDS011;36247;51.952;6.146;2022-08-19T11:41:19;21.73;;;14.68;;
29908;SDS011;36247;51.952;6.146;2022-08-19T11:43:46;20.83;;;14.57;;
29908;SDS011;36247;51.952;6.146;2022-08-19T11:46:12;23.35;;;15.30;;
29908;SDS011;36247;51.952;6.146;2022-08-19T11:48:40;22.05;;;14.85;;
29908;SDS011;36247;51.952;6.146;2022-08-19T11:51:06;19.70;;;13.77;;
29908;SDS011;36247;51.952;6.146;2022-08-19T11:53:35;18.92;;;13.90;;
29908;SDS011;36247;51.952;6.146;2022-08-19T11:56:01;27.45;;;15.93;;
29908;SDS011;36247;51.952;6.146;2022-08-19T11:58:28;23.90;;;16.83;;
29908;SDS011;36247;51.952;6.146;2022-08-19T12:00:54;21.00;;;14.30;;
29908;SDS011;36247;51.952;6.146;2022-08-19T12:03:20;21.85;;;15.07;;
29908;SDS011;36247;51.952;6.146;2022-08-19T12:05:46;21.30;;;17.05;;
29908;SDS011;36247;51.952;6.146;2022-08-19T12:08:12;23.80;;;15.23;;
29908;SDS011;36247;51.952;6.146;2022-08-19T12:10:38;20.75;;;14.98;;
29908;SDS011;36247;51.952;6.146;2022-08-19T12:13:04;18.70;;;14.35;;
29908;SDS011;36247;51.952;6.146;2022-08-19T12:15:35;20.27;;;13.52;;
29908;SDS011;36247;51.952;6.146;2022-08-19T12:18:05;22.15;;;14.98;;
29908;SDS011;36247;51.952;6.146;2022-08-19T12:20:34;25.75;;;15.65;;
29908;SDS011;36247;51.952;6.146;2022-08-19T12:23:02;21.48;;;14.23;;
29908;SDS011;36247;51.952;6.146;2022-08-19T12:25:29;21.05;;;15.25;;
29908;SDS011;36247;51.952;6.146;2022-08-19T12:27:57;23.75;;;16.55;;
29908;SDS011;36247;51.952;6.146;2022-08-19T12:30:22;24.70;;;17.83;;
29908;SDS011;36247;51.952;6.146;2022-08-19T12:32:48;26.33;;;15.93;;
29908;SDS011;36247;51.952;6.146;2022-08-19T12:35:13;22.55;;;15.52;;
29908;SDS011;36247;51.952;6.146;2022-08-19T12:37:39;23.30;;;15.75;;
29908;SDS011;36247;51.952;6.146;2022-08-19T12:40:07;16.80;;;13.30;;
29908;SDS011;36247;51.952;6.146;2022-08-19T12:42:33;20.33;;;15.57;;
29908;SDS011;36247;51.952;6.146;2022-08-19T12:44:59;22.88;;;14.50;;
29908;SDS011;36247;51.952;6.146;2022-08-19T12:47:25;16.08;;;13.85;;
29908;SDS011;36247;51.952;6.146;2022-08-19T12:49:52;19.30;;;13.02;;
29908;SDS011;36247;51.952;6.146;2022-08-19T12:52:17;20.05;;;14.02;;
29908;SDS011;36247;51.952;6.146;2022-08-19T12:54:46;18.55;;;13.60;;
29908;SDS011;36247;51.952;6.146;2022-08-19T12:57:11;22.08;;;15.43;;
29908;SDS011;36247;51.952;6.146;2022-08-19T12:59:37;17.65;;;13.52;;
29908;SDS011;36247;51.952;6.146;2022-08-19T13:02:04;16.60;;;13.93;;
29908;SDS011;36247;51.952;6.146;2022-08-19T13:04:32;20.45;;;14.13;;
29908;SDS011;36247;51.952;6.146;2022-08-19T13:07:05;21.90;;;18.63;;
29908;SDS011;36247;51.952;6.146;2022-08-19T13:09:33;18.10;;;14.88;;
29908;SDS011;36247;51.952;6.146;2022-08-19T13:11:58;23.08;;;17.05;;
29908;SDS011;36247;51.952;6.146;2022-08-19T13:14:27;24.50;;;17.77;;
29908;SDS011;36247;51.952;6.146;2022-08-19T13:16:54;24.48;;;16.42;;
29908;SDS011;36247;51.952;6.146;2022-08-19T13:19:19;22.38;;;15.90;;
29908;SDS011;36247;51.952;6.146;2022-08-19T13:21:49;22.13;;;16.40;;
29908;SDS011;36247;51.952;6.146;2022-08-19T13:24:15;25.27;;;20.15;;
29908;SDS011;36247;51.952;6.146;2022-08-19T13:26:40;25.13;;;17.83;;
29908;SDS011;36247;51.952;6.146;2022-08-19T13:29:06;26.02;;;17.08;;
29908;SDS011;36247;51.952;6.146;2022-08-19T13:31:50;21.70;;;17.13;;
29908;SDS011;36247;51.952;6.146;2022-08-19T13:36:54;26.40;;;19.73;;
29908;SDS011;36247;51.952;6.146;2022-08-19T13:39:20;30.08;;;21.30;;
29908;SDS011;36247;51.952;6.146;2022-08-19T13:41:48;25.83;;;18.98;;
29908;SDS011;36247;51.952;6.146;2022-08-19T13:44:16;24.88;;;19.58;;
29908;SDS011;36247;51.952;6.146;2022-08-19T13:46:44;24.40;;;18.00;;
29908;SDS011;36247;51.952;6.146;2022-08-19T13:49:10;25.30;;;19.48;;
29908;SDS011;36247;51.952;6.146;2022-08-19T13:51:38;21.58;;;18.27;;
29908;SDS011;36247;51.952;6.146;2022-08-19T13:54:05;26.05;;;18.85;;
29908;SDS011;36247;51.952;6.146;2022-08-19T13:56:31;26.85;;;20.23;;
29908;SDS011;36247;51.952;6.146;2022-08-19T13:58:57;26.13;;;20.50;;
29908;SDS011;36247;51.952;6.146;2022-08-19T14:01:23;19.40;;;17.30;;
29908;SDS011;36247;51.952;6.146;2022-08-19T14:03:49;27.05;;;19.33;;
29908;SDS011;36247;51.952;6.146;2022-08-19T14:06:14;25.35;;;20.98;;
29908;SDS011;36247;51.952;6.146;2022-08-19T14:08:42;21.70;;;17.38;;
29908;SDS011;36247;51.952;6.146;2022-08-19T14:11:08;28.45;;;20.65;;
29908;SDS011;36247;51.952;6.146;2022-08-19T14:13:34;24.77;;;20.73;;
29908;SDS011;36247;51.952;6.146;2022-08-19T14:16:00;23.02;;;18.05;;
29908;SDS011;36247;51.952;6.146;2022-08-19T14:18:25;24.95;;;16.52;;
29908;SDS011;36247;51.952;6.146;2022-08-19T14:20:52;22.25;;;15.60;;
29908;SDS011;36247;51.952;6.146;2022-08-19T14:23:17;18.98;;;14.07;;
29908;SDS011;36247;51.952;6.146;2022-08-19T14:25:44;21.10;;;13.75;;
29908;SDS011;36247;51.952;6.146;2022-08-19T14:28:11;17.38;;;14.43;;
29908;SDS011;36247;51.952;6.146;2022-08-19T14:30:37;20.88;;;16.27;;
29908;SDS011;36247;51.952;6.146;2022-08-19T14:33:03;18.52;;;16.20;;
29908;SDS011;36247;51.952;6.146;2022-08-19T14:35:31;22.60;;;17.13;;
29908;SDS011;36247;51.952;6.146;2022-08-19T14:38:04;17.17;;;15.13;;
29908;SDS011;36247;51.952;6.146;2022-08-19T14:40:31;25.13;;;16.95;;
29908;SDS011;36247;51.952;6.146;2022-08-19T14:42:59;18.77;;;16.25;;
29908;SDS011;36247;51.952;6.146;2022-08-19T14:45:29;22.83;;;16.10;;
29908;SDS011;36247;51.952;6.146;2022-08-19T14:47:59;20.92;;;15.57;;
29908;SDS011;36247;51.952;6.146;2022-08-19T14:50:25;25.77;;;19.67;;
29908;SDS011;36247;51.952;6.146;2022-08-19T14:52:57;28.35;;;20.92;;